Terminal Aerodrome Forecast
Issued by NWS

Home | Current Version | Previous Version | Text Only | Print | Product List | Glossary Off
Versions: 1 2 3 4 5 6 7 8 9 10 11 12 13 14 15 16

035
FTUS43 KUNR 301722
TAFGCC
TAF
KGCC 301722Z 3018/0118 30012KT P6SM SKC
     FM302300 24008KT P6SM SCT060=

USA.gov is the U.S. government's official web portal to all federal, state and local government web resources and services.